createdAt,value
2019-02-06T00:01:02.342Z,3.23
2019-02-06T00:02:15.165Z,3.22
2019-02-06T00:03:22.427Z,3.22
2019-02-06T00:04:27.563Z,3.19
2019-02-06T00:05:32.432Z,3.24
2019-02-06T00:06:37.297Z,3.20
2019-02-06T00:07:42.801Z,3.27
2019-02-06T00:08:47.884Z,3.22
2019-02-06T00:09:52.954Z,3.18
2019-02-06T00:10:58.091Z,3.12
2019-02-06T00:12:03.338Z,3.21
2019-02-06T00:13:08.970Z,3.24
2019-02-06T00:14:13.761Z,3.25
2019-02-06T00:15:18.643Z,3.31
2019-02-06T00:16:23.833Z,3.14
2019-02-06T00:17:28.344Z,3.12
2019-02-06T00:18:35.959Z,3.16
2019-02-06T00:19:41.122Z,3.18
2019-02-06T00:20:46.474Z,3.16
2019-02-06T00:21:51.431Z,3.13
2019-02-06T00:22:56.835Z,3.07
2019-02-06T00:24:01.936Z,3.04
2019-02-06T00:25:06.588Z,3.01
2019-02-06T00:26:11.681Z,3.02
2019-02-06T00:27:16.821Z,3.03
2019-02-06T00:28:21.584Z,3.05
2019-02-06T00:29:27.004Z,3.10
2019-02-06T00:30:35.158Z,3.08
2019-02-06T00:31:40.519Z,3.07
2019-02-06T00:32:45.307Z,3.02
2019-02-06T00:33:50.672Z,3.09
2019-02-06T00:34:55.517Z,3.15
2019-02-06T00:36:00.306Z,3.07
2019-02-06T00:37:05.262Z,3.05
2019-02-06T00:38:10.056Z,3.16
2019-02-06T00:39:14.838Z,3.15
2019-02-06T00:40:19.635Z,3.11
2019-02-06T00:41:24.419Z,3.08
2019-02-06T00:42:29.637Z,3.10
2019-02-06T00:43:34.770Z,3.18
2019-02-06T00:44:39.255Z,3.11
2019-02-06T00:45:44.379Z,3.15
2019-02-06T00:46:49.149Z,3.12
2019-02-06T00:47:53.943Z,3.09
2019-02-06T00:48:58.881Z,3.15
2019-02-06T00:50:04.037Z,3.06
2019-02-06T00:51:09.224Z,3.07
2019-02-06T00:52:14.320Z,3.17
2019-02-06T00:53:19.733Z,3.15
2019-02-06T00:54:24.877Z,3.08
2019-02-06T00:55:29.649Z,3.03
2019-02-06T00:56:35.244Z,3.06
2019-02-06T00:57:40.368Z,3.02
2019-02-06T00:58:45.163Z,3.06
2019-02-06T00:59:50.254Z,3.05
2019-02-06T01:00:55.720Z,3.00
2019-02-06T01:02:00.668Z,3.02
2019-02-06T01:03:05.495Z,3.08
2019-02-06T01:04:11.148Z,3.01
2019-02-06T01:05:16.203Z,3.05
2019-02-06T01:06:21.384Z,2.98
2019-02-06T01:07:26.552Z,3.07
2019-02-06T01:08:31.853Z,2.94
2019-02-06T01:09:36.639Z,2.85
2019-02-06T01:10:41.699Z,2.84
2019-02-06T01:11:46.796Z,2.96
2019-02-06T01:12:51.598Z,2.90
2019-02-06T01:13:56.364Z,2.90
2019-02-06T01:15:01.152Z,2.97
2019-02-06T01:16:06.302Z,2.79
2019-02-06T01:17:11.070Z,2.83
2019-02-06T01:18:15.890Z,2.84
2019-02-06T01:19:20.660Z,2.81
2019-02-06T01:20:25.448Z,2.83
2019-02-06T01:21:30.310Z,2.80
2019-02-06T01:22:35.766Z,2.77
2019-02-06T01:23:40.313Z,2.79
2019-02-06T01:24:45.209Z,2.80
2019-02-06T01:25:50.306Z,2.83
2019-02-06T01:26:56.390Z,2.80
2019-02-06T01:28:01.194Z,2.76
2019-02-06T01:29:06.416Z,2.81
2019-02-06T01:30:14.859Z,2.81
2019-02-06T01:31:23.717Z,2.88
2019-02-06T01:32:28.859Z,2.74
2019-02-06T01:33:33.972Z,2.78
2019-02-06T01:34:38.827Z,2.80
2019-02-06T01:35:49.903Z,2.81
2019-02-06T01:36:50.616Z,2.83
2019-02-06T01:37:55.711Z,2.75
2019-02-06T01:39:00.567Z,2.87
2019-02-06T01:40:06.139Z,2.93
2019-02-06T01:41:11.563Z,2.89
2019-02-06T01:42:16.385Z,2.81
2019-02-06T01:43:21.524Z,2.66
2019-02-06T01:44:27.398Z,2.60
2019-02-06T01:45:32.221Z,2.58
2019-02-06T01:46:37.286Z,2.60
2019-02-06T01:47:42.928Z,2.62
2019-02-06T01:48:48.054Z,2.61
2019-02-06T01:49:53.353Z,2.61
2019-02-06T01:50:58.440Z,2.65
2019-02-06T01:52:03.212Z,2.48
2019-02-06T01:53:08.037Z,2.53
2019-02-06T01:54:12.839Z,2.55
2019-02-06T01:55:17.653Z,2.51
2019-02-06T01:56:22.436Z,2.49
2019-02-06T01:57:27.270Z,2.53
2019-02-06T01:58:32.375Z,2.48
2019-02-06T01:59:37.325Z,2.62
2019-02-06T02:00:42.557Z,2.47
2019-02-06T02:01:47.687Z,2.50
2019-02-06T02:02:52.760Z,2.66
2019-02-06T02:03:57.759Z,2.58
2019-02-06T02:05:03.410Z,2.54
2019-02-06T02:06:08.568Z,2.53
2019-02-06T02:07:13.364Z,2.69
2019-02-06T02:08:18.160Z,2.63
2019-02-06T02:09:23.631Z,2.58
2019-02-06T02:10:28.837Z,2.67
2019-02-06T02:11:34.022Z,2.63
2019-02-06T02:12:38.810Z,2.63
2019-02-06T02:13:43.629Z,2.74
2019-02-06T02:14:48.712Z,2.69
2019-02-06T02:15:53.610Z,2.70
2019-02-06T02:16:59.158Z,2.74
2019-02-06T02:18:04.294Z,2.69
2019-02-06T02:19:09.994Z,2.64
2019-02-06T02:20:17.271Z,2.67
2019-02-06T02:21:22.210Z,2.64
2019-02-06T02:22:27.347Z,2.70
2019-02-06T02:23:32.217Z,2.66
2019-02-06T02:24:37.709Z,2.72
2019-02-06T02:25:43.539Z,2.73
2019-02-06T02:26:48.618Z,2.75
2019-02-06T02:27:53.110Z,2.71
2019-02-06T02:28:57.887Z,2.70
2019-02-06T02:30:02.690Z,2.73
2019-02-06T02:31:07.172Z,2.72
2019-02-06T02:32:12.251Z,2.72
2019-02-06T02:33:17.065Z,2.72
2019-02-06T02:34:22.255Z,2.78
2019-02-06T02:35:27.451Z,2.84
2019-02-06T02:36:35.102Z,2.80
2019-02-06T02:37:39.990Z,2.90
2019-02-06T02:38:45.180Z,2.75
2019-02-06T02:39:50.737Z,2.66
2019-02-06T02:40:56.255Z,2.64
2019-02-06T02:42:01.394Z,2.69
2019-02-06T02:43:06.593Z,2.75
2019-02-06T02:44:11.846Z,2.75
2019-02-06T02:45:17.792Z,2.63
2019-02-06T02:46:23.311Z,2.70
2019-02-06T02:47:29.129Z,2.69
2019-02-06T02:48:34.794Z,2.75
2019-02-06T02:49:39.642Z,2.76
2019-02-06T02:50:44.802Z,2.77
2019-02-06T02:51:49.576Z,2.85
2019-02-06T02:52:54.090Z,2.83
2019-02-06T02:53:59.615Z,2.75
2019-02-06T02:55:04.721Z,2.71
2019-02-06T02:56:09.501Z,2.63
2019-02-06T02:57:15.010Z,2.66
2019-02-06T02:58:20.140Z,2.72
2019-02-06T02:59:24.972Z,2.66
2019-02-06T03:00:43.891Z,2.67
2019-02-06T03:02:13.398Z,2.67
2019-02-06T03:03:32.982Z,2.63
2019-02-06T03:04:45.058Z,2.74
2019-02-06T03:05:49.850Z,2.87
2019-02-06T03:06:55.671Z,2.70
2019-02-06T03:08:00.916Z,2.70
2019-02-06T03:09:09.486Z,2.69
2019-02-06T03:10:14.278Z,2.80
2019-02-06T03:11:19.416Z,2.75
2019-02-06T03:12:24.374Z,2.75
2019-02-06T03:13:30.201Z,2.67
2019-02-06T03:14:35.664Z,2.59
2019-02-06T03:15:41.212Z,2.71
2019-02-06T03:16:46.438Z,2.68
2019-02-06T03:17:50.935Z,2.76
2019-02-06T03:18:55.705Z,2.85
2019-02-06T03:20:00.806Z,2.89
2019-02-06T03:21:05.606Z,2.87
2019-02-06T03:22:10.400Z,2.84
2019-02-06T03:23:14.952Z,2.81
2019-02-06T03:24:20.605Z,2.79
2019-02-06T03:25:25.450Z,2.81
2019-02-06T03:26:30.268Z,2.80
2019-02-06T03:27:35.772Z,2.78
2019-02-06T03:28:40.633Z,2.66
2019-02-06T03:29:45.567Z,2.76
2019-02-06T03:30:50.048Z,2.77
2019-02-06T03:31:54.837Z,2.68
2019-02-06T03:32:59.980Z,2.69
2019-02-06T03:34:05.124Z,2.75
2019-02-06T03:35:09.955Z,2.84
2019-02-06T03:36:15.026Z,2.78
2019-02-06T03:37:20.493Z,2.87
2019-02-06T03:38:25.898Z,2.82
2019-02-06T03:39:30.697Z,2.83
2019-02-06T03:40:35.494Z,2.87
2019-02-06T03:41:40.669Z,2.81
2019-02-06T03:42:45.751Z,2.81
2019-02-06T03:43:50.965Z,2.79
2019-02-06T03:44:55.458Z,2.87
2019-02-06T03:46:00.560Z,2.84
2019-02-06T03:47:05.382Z,2.86
2019-02-06T03:48:10.155Z,2.79
2019-02-06T03:49:15.174Z,2.85
2019-02-06T03:50:19.990Z,2.81
2019-02-06T03:51:24.757Z,2.85
2019-02-06T03:52:31.977Z,2.88
2019-02-06T03:53:36.872Z,2.89
2019-02-06T03:54:42.066Z,2.85
2019-02-06T03:55:47.538Z,2.81
2019-02-06T03:56:52.687Z,2.83
2019-02-06T03:57:57.486Z,2.85
2019-02-06T03:59:02.592Z,2.96
2019-02-06T04:00:09.272Z,2.91
2019-02-06T04:01:15.350Z,2.84
2019-02-06T04:02:20.714Z,2.83
2019-02-06T04:03:27.156Z,2.80
2019-02-06T04:04:32.063Z,2.76
2019-02-06T04:05:36.893Z,2.69
2019-02-06T04:06:52.778Z,2.80
2019-02-06T04:07:47.896Z,2.78
2019-02-06T04:08:53.086Z,2.74
2019-02-06T04:09:57.880Z,2.76
2019-02-06T04:11:03.045Z,2.70
2019-02-06T04:12:08.467Z,2.74
2019-02-06T04:13:13.535Z,2.77
2019-02-06T04:14:18.300Z,2.84
2019-02-06T04:15:24.150Z,2.84
2019-02-06T04:16:29.634Z,2.85
2019-02-06T04:17:34.913Z,2.78
2019-02-06T04:18:39.720Z,2.81
2019-02-06T04:19:44.625Z,2.80
2019-02-06T04:20:49.172Z,2.75
2019-02-06T04:21:54.889Z,2.75
2019-02-06T04:23:00.643Z,2.74
2019-02-06T04:24:05.845Z,2.76
2019-02-06T04:25:10.916Z,2.83
2019-02-06T04:26:16.091Z,2.74
2019-02-06T04:27:20.871Z,2.76
2019-02-06T04:28:25.644Z,2.75
2019-02-06T04:29:30.479Z,2.80
2019-02-06T04:30:35.326Z,2.76
2019-02-06T04:31:40.495Z,2.78
2019-02-06T04:32:45.400Z,2.76
2019-02-06T04:33:50.338Z,2.82
2019-02-06T04:34:55.525Z,2.85
2019-02-06T04:36:00.538Z,2.79
2019-02-06T04:37:06.879Z,2.74
2019-02-06T04:38:11.448Z,2.72
2019-02-06T04:39:16.671Z,2.70
2019-02-06T04:40:21.505Z,2.80
2019-02-06T04:41:26.998Z,2.76
2019-02-06T04:42:32.623Z,2.80
2019-02-06T04:43:37.436Z,2.79
2019-02-06T04:44:42.982Z,2.68
2019-02-06T04:45:47.911Z,2.72
2019-02-06T04:46:53.227Z,2.69
2019-02-06T04:47:58.334Z,2.72
2019-02-06T04:49:03.149Z,2.71
2019-02-06T04:50:09.191Z,2.73
2019-02-06T04:51:14.353Z,2.70
2019-02-06T04:52:19.141Z,2.66
2019-02-06T04:53:24.327Z,2.67
2019-02-06T04:54:29.972Z,2.69
2019-02-06T04:55:35.179Z,2.67
2019-02-06T04:56:40.356Z,2.59
2019-02-06T04:57:45.242Z,2.67
2019-02-06T04:58:50.373Z,2.63
2019-02-06T04:59:55.152Z,2.68
2019-02-06T05:01:00.578Z,2.68
2019-02-06T05:02:05.076Z,2.74
2019-02-06T05:03:10.528Z,2.75
2019-02-06T05:04:15.024Z,2.84
2019-02-06T05:05:19.532Z,2.87
2019-02-06T05:06:24.337Z,2.79
2019-02-06T05:07:29.956Z,2.78
2019-02-06T05:08:34.732Z,2.84
2019-02-06T05:09:40.648Z,2.78
2019-02-06T05:10:45.782Z,2.78
2019-02-06T05:11:50.656Z,2.75
2019-02-06T05:12:55.780Z,2.85
2019-02-06T05:14:01.373Z,2.77
2019-02-06T05:15:06.600Z,2.80
2019-02-06T05:16:11.113Z,2.71
2019-02-06T05:17:16.281Z,2.70
2019-02-06T05:18:21.301Z,2.65
2019-02-06T05:19:26.660Z,2.78
2019-02-06T05:20:39.520Z,2.71
2019-02-06T05:21:45.002Z,2.70
2019-02-06T05:22:50.199Z,2.75
2019-02-06T05:23:56.163Z,2.71
2019-02-06T05:25:01.393Z,2.69
2019-02-06T05:26:05.899Z,2.79
2019-02-06T05:27:11.087Z,2.77
2019-02-06T05:28:18.289Z,2.85
2019-02-06T05:29:22.252Z,2.86
2019-02-06T05:30:27.056Z,2.94
2019-02-06T05:31:32.278Z,2.76
2019-02-06T05:32:42.789Z,2.80
2019-02-06T05:33:45.155Z,2.83
2019-02-06T05:34:50.108Z,2.75
2019-02-06T05:35:55.226Z,2.82
2019-02-06T05:37:00.441Z,2.79
2019-02-06T05:38:05.258Z,2.74
2019-02-06T05:39:10.497Z,2.74
2019-02-06T05:40:15.005Z,2.76
2019-02-06T05:41:21.045Z,2.78
2019-02-06T05:42:25.856Z,2.84
2019-02-06T05:43:30.730Z,2.83
2019-02-06T05:44:35.550Z,2.85
2019-02-06T05:45:40.782Z,2.87
2019-02-06T05:46:45.894Z,2.81
2019-02-06T05:47:50.413Z,2.75
2019-02-06T05:48:55.282Z,2.79
2019-02-06T05:50:00.493Z,2.77
2019-02-06T05:51:05.621Z,2.78
2019-02-06T05:52:10.712Z,2.75
2019-02-06T05:53:16.227Z,2.71
2019-02-06T05:54:21.390Z,2.69
2019-02-06T05:55:26.591Z,2.76
2019-02-06T05:56:31.426Z,2.77
2019-02-06T05:57:36.919Z,2.71
2019-02-06T05:58:42.730Z,2.72
2019-02-06T05:59:48.058Z,2.71
2019-02-06T06:00:52.908Z,2.75
2019-02-06T06:01:57.688Z,2.71
2019-02-06T06:03:02.764Z,2.66
2019-02-06T06:04:07.556Z,2.62
2019-02-06T06:05:12.800Z,2.64
2019-02-06T06:06:17.595Z,2.71
2019-02-06T06:07:22.374Z,2.73
2019-02-06T06:08:27.562Z,2.75
2019-02-06T06:09:32.696Z,2.68
2019-02-06T06:10:37.678Z,2.77
2019-02-06T06:11:42.873Z,2.81
2019-02-06T06:12:47.968Z,2.80
2019-02-06T06:13:53.221Z,2.76
2019-02-06T06:14:58.400Z,2.71
2019-02-06T06:16:03.173Z,2.61
2019-02-06T06:17:08.586Z,2.64
2019-02-06T06:18:13.680Z,2.65
2019-02-06T06:19:19.201Z,2.60
2019-02-06T06:20:23.720Z,2.64
2019-02-06T06:21:28.216Z,2.69
2019-02-06T06:22:33.124Z,2.64
2019-02-06T06:23:38.017Z,2.64
2019-02-06T06:24:43.139Z,2.61
2019-02-06T06:25:48.565Z,2.68
2019-02-06T06:26:54.211Z,2.62
2019-02-06T06:27:59.378Z,2.59
2019-02-06T06:29:04.180Z,2.63
2019-02-06T06:30:14.440Z,2.51
2019-02-06T06:31:19.299Z,2.54
2019-02-06T06:32:23.806Z,2.49
2019-02-06T06:33:29.804Z,2.52
2019-02-06T06:34:35.145Z,2.49
2019-02-06T06:35:40.452Z,2.62
2019-02-06T06:36:45.688Z,2.55
2019-02-06T06:38:00.729Z,2.48
2019-02-06T06:38:58.005Z,2.55
2019-02-06T06:40:03.183Z,2.65
2019-02-06T06:41:08.049Z,2.59
2019-02-06T06:42:13.196Z,2.57
2019-02-06T06:43:17.692Z,2.61
2019-02-06T06:44:22.831Z,2.61
2019-02-06T06:45:27.922Z,2.52
2019-02-06T06:46:33.139Z,2.54
2019-02-06T06:47:38.007Z,2.50
2019-02-06T06:48:42.820Z,2.52
2019-02-06T06:49:48.052Z,2.54
2019-02-06T06:50:53.670Z,2.56
2019-02-06T06:51:58.487Z,2.63
2019-02-06T06:53:03.966Z,2.59
2019-02-06T06:54:08.874Z,2.52
2019-02-06T06:55:14.241Z,2.51
2019-02-06T06:56:19.832Z,2.58
2019-02-06T06:57:24.608Z,2.59
2019-02-06T06:58:29.392Z,2.60
2019-02-06T06:59:34.657Z,2.59
2019-02-06T07:00:39.417Z,2.62
2019-02-06T07:01:44.201Z,2.55
2019-02-06T07:02:48.703Z,2.57
2019-02-06T07:03:53.940Z,2.66
2019-02-06T07:04:59.051Z,2.60
2019-02-06T07:16:22.232Z,2.70
2019-02-06T07:17:27.070Z,2.80
2019-02-06T07:18:31.955Z,2.73
2019-02-06T07:19:36.262Z,2.74
2019-02-06T07:20:40.808Z,2.82
2019-02-06T07:21:45.117Z,2.88
2019-02-06T07:22:49.677Z,2.85
2019-02-06T07:23:55.122Z,2.83
2019-02-06T07:24:59.717Z,2.88
2019-02-06T07:26:03.787Z,2.88
2019-02-06T07:27:08.658Z,2.94
2019-02-06T07:28:13.039Z,2.91
2019-02-06T07:29:17.330Z,2.97
2019-02-06T07:30:29.505Z,2.96
2019-02-06T07:31:33.897Z,3.01
2019-02-06T07:32:38.498Z,3.03
2019-02-06T07:33:43.080Z,3.07
2019-02-06T07:34:47.153Z,3.08
2019-02-06T07:35:51.992Z,3.06
2019-02-06T07:36:56.275Z,3.12
2019-02-06T07:38:01.303Z,3.12
2019-02-06T07:39:08.694Z,3.16
2019-02-06T07:40:13.009Z,3.16
2019-02-06T07:41:17.626Z,3.22
2019-02-06T07:42:22.118Z,3.23
2019-02-06T07:43:26.691Z,3.19
2019-02-06T07:44:31.081Z,3.29
2019-02-06T07:45:35.375Z,3.31
2019-02-06T07:46:39.942Z,3.43
2019-02-06T07:47:44.319Z,3.41
2019-02-06T07:48:48.914Z,3.47
2019-02-06T07:49:53.225Z,3.41
2019-02-06T07:50:57.778Z,3.47
2019-02-06T07:52:02.358Z,3.47
2019-02-06T07:53:06.650Z,3.51
2019-02-06T07:54:11.225Z,3.56
2019-02-06T07:55:15.791Z,3.58
2019-02-06T07:56:20.356Z,3.54
2019-02-06T07:57:24.656Z,3.59
2019-02-06T07:58:29.332Z,3.63
2019-02-06T07:59:36.700Z,3.63
2019-02-06T08:00:41.307Z,3.55
2019-02-06T08:01:45.868Z,3.58
2019-02-06T08:02:50.464Z,3.65
2019-02-06T08:03:55.039Z,3.53
2019-02-06T08:04:59.873Z,3.64
2019-02-06T08:06:04.172Z,3.63
2019-02-06T08:07:08.228Z,3.65
2019-02-06T08:08:12.548Z,3.68
2019-02-06T08:09:17.136Z,3.68
2019-02-06T08:10:23.577Z,3.69
2019-02-06T08:11:28.145Z,3.80
2019-02-06T08:12:35.531Z,3.70
2019-02-06T08:13:40.098Z,3.79
2019-02-06T08:14:44.662Z,3.77
2019-02-06T08:15:49.504Z,3.71
2019-02-06T08:16:54.538Z,3.83
2019-02-06T08:17:59.025Z,3.91
2019-02-06T08:19:03.394Z,3.96
2019-02-06T08:20:09.044Z,3.91
2019-02-06T08:21:13.933Z,3.88
2019-02-06T08:22:18.518Z,3.95
2019-02-06T08:23:22.798Z,4.03
2019-02-06T08:24:27.404Z,3.97
2019-02-06T08:25:31.935Z,4.00
2019-02-06T08:26:36.536Z,4.05
2019-02-06T08:27:40.912Z,3.99
2019-02-06T08:28:45.788Z,4.05
2019-02-06T08:29:50.667Z,3.94
2019-02-06T08:30:55.493Z,3.97
2019-02-06T08:31:59.810Z,4.02
2019-02-06T08:33:04.372Z,4.02
2019-02-06T08:34:08.951Z,3.97
2019-02-06T08:35:13.802Z,4.03
2019-02-06T08:36:18.133Z,4.03
2019-02-06T08:37:22.694Z,4.05
2019-02-06T08:38:27.267Z,4.14
2019-02-06T08:39:31.580Z,4.06
2019-02-06T08:40:36.236Z,4.03
2019-02-06T08:41:40.538Z,4.06
2019-02-06T08:42:45.106Z,4.16
2019-02-06T08:43:49.705Z,4.10
2019-02-06T08:44:54.303Z,4.10
2019-02-06T08:45:59.152Z,4.10
2019-02-06T08:47:03.733Z,4.08
2019-02-06T08:48:08.036Z,4.09
2019-02-06T08:49:12.331Z,4.16
2019-02-06T08:50:17.256Z,4.19
2019-02-06T08:51:22.929Z,4.17
2019-02-06T08:52:27.500Z,4.25
2019-02-06T08:53:32.383Z,4.16
2019-02-06T08:54:37.015Z,4.26
2019-02-06T08:55:41.588Z,4.24
2019-02-06T08:56:45.981Z,4.29
2019-02-06T08:57:50.837Z,4.36
2019-02-06T08:58:55.144Z,4.32
2019-02-06T08:59:59.479Z,4.25
2019-02-06T09:01:03.812Z,4.40
2019-02-06T09:02:08.101Z,4.38
2019-02-06T09:03:12.968Z,4.51
2019-02-06T09:04:17.558Z,4.51
2019-02-06T09:05:22.425Z,4.41
2019-02-06T09:06:26.716Z,4.55
2019-02-06T09:07:31.250Z,4.48
2019-02-06T09:08:35.820Z,4.58
2019-02-06T09:09:43.460Z,4.67
2019-02-06T09:10:46.470Z,4.56
2019-02-06T09:11:50.768Z,4.70
2019-02-06T09:12:55.740Z,4.65
2019-02-06T09:14:00.018Z,4.65
2019-02-06T09:15:04.305Z,4.73
2019-02-06T09:16:08.914Z,4.87
2019-02-06T09:17:13.224Z,4.86
2019-02-06T09:18:17.786Z,4.90
2019-02-06T09:19:22.076Z,4.89
2019-02-06T09:20:26.855Z,4.85
2019-02-06T09:21:33.047Z,5.03
2019-02-06T09:22:37.895Z,5.16
2019-02-06T09:23:42.478Z,5.13
2019-02-06T09:24:47.590Z,5.12
2019-02-06T09:25:52.393Z,5.27
2019-02-06T09:26:56.984Z,5.14
2019-02-06T09:28:01.534Z,5.29
2019-02-06T09:29:06.206Z,5.31
2019-02-06T09:30:12.699Z,5.21
2019-02-06T09:31:17.014Z,5.35
2019-02-06T09:32:21.314Z,5.44
2019-02-06T09:33:26.483Z,5.46
2019-02-06T09:34:31.118Z,5.52
2019-02-06T09:35:35.538Z,5.44
2019-02-06T09:36:40.109Z,5.59
2019-02-06T09:37:44.451Z,5.56
2019-02-06T09:38:48.856Z,5.76
2019-02-06T09:39:53.220Z,5.71
2019-02-06T09:40:58.008Z,5.91
2019-02-06T09:42:02.859Z,5.88
2019-02-06T09:43:07.222Z,5.97
2019-02-06T09:44:11.772Z,6.03
2019-02-06T09:45:16.724Z,6.15
2019-02-06T09:46:21.312Z,6.26
2019-02-06T09:47:26.145Z,6.43
2019-02-06T09:48:31.502Z,6.37
2019-02-06T09:49:36.330Z,6.48
2019-02-06T09:50:41.385Z,6.69
2019-02-06T09:51:45.940Z,6.83
2019-02-06T09:52:51.060Z,6.96
2019-02-06T09:53:55.353Z,7.11
2019-02-06T09:54:59.920Z,7.19
2019-02-06T09:56:04.218Z,7.16
2019-02-06T09:57:09.050Z,7.27
2019-02-06T09:58:13.623Z,7.42
2019-02-06T09:59:18.588Z,7.22
2019-02-06T10:00:27.980Z,7.29
2019-02-06T10:01:32.414Z,7.18
2019-02-06T10:02:37.076Z,7.26
2019-02-06T10:03:41.398Z,7.35
2019-02-06T10:04:45.749Z,7.36
2019-02-06T10:05:50.315Z,7.43
2019-02-06T10:06:54.543Z,7.33
2019-02-06T10:07:59.129Z,7.26
2019-02-06T10:09:04.654Z,7.34
2019-02-06T10:10:15.262Z,7.19
2019-02-06T10:11:20.099Z,7.12
2019-02-06T10:12:24.426Z,6.96
2019-02-06T10:13:28.705Z,6.95
2019-02-06T10:14:33.893Z,6.82
2019-02-06T10:15:39.117Z,7.12
2019-02-06T10:16:43.481Z,7.22
2019-02-06T10:17:48.257Z,7.11
2019-02-06T10:18:53.235Z,7.30
2019-02-06T10:19:57.307Z,7.43
2019-02-06T10:21:01.892Z,7.52
2019-02-06T10:22:06.457Z,7.64
2019-02-06T10:23:11.128Z,7.48
2019-02-06T10:24:15.726Z,7.78
2019-02-06T10:25:20.326Z,7.84
2019-02-06T10:26:24.915Z,7.59
2019-02-06T10:27:29.205Z,7.36
2019-02-06T10:28:34.031Z,7.38
2019-02-06T10:29:38.088Z,7.42
2019-02-06T10:30:47.903Z,7.54
2019-02-06T10:31:52.462Z,7.41
2019-02-06T10:32:57.336Z,7.72
2019-02-06T10:34:01.662Z,7.74
2019-02-06T10:35:06.932Z,7.59
2019-02-06T10:36:11.255Z,7.78
2019-02-06T10:37:15.555Z,7.44
2019-02-06T10:38:19.885Z,7.67
2019-02-06T10:39:34.342Z,7.87
2019-02-06T10:40:30.689Z,7.60
2019-02-06T10:41:35.351Z,7.41
2019-02-06T10:42:39.636Z,7.49
2019-02-06T10:43:44.197Z,7.37
2019-02-06T10:44:48.781Z,7.60
2019-02-06T10:45:53.115Z,7.58
2019-02-06T10:46:57.699Z,7.55
2019-02-06T10:48:02.006Z,7.43
2019-02-06T10:49:06.694Z,7.46
2019-02-06T10:50:12.995Z,7.50
2019-02-06T10:51:17.840Z,7.23
2019-02-06T10:52:22.427Z,7.55
2019-02-06T10:53:27.647Z,7.38
2019-02-06T10:54:32.364Z,7.31
2019-02-06T10:55:36.923Z,7.42
2019-02-06T10:56:41.322Z,7.27
2019-02-06T10:57:45.894Z,7.52
2019-02-06T10:58:50.482Z,7.51
2019-02-06T10:59:55.331Z,7.65
2019-02-06T11:01:01.727Z,7.59
2019-02-06T11:02:05.949Z,7.62
2019-02-06T11:03:10.253Z,7.74
2019-02-06T11:04:14.862Z,7.82
2019-02-06T11:05:19.454Z,7.54
2019-02-06T11:06:23.748Z,7.65
2019-02-06T11:07:28.364Z,7.65
2019-02-06T11:08:32.772Z,7.61
2019-02-06T11:09:46.060Z,7.67
2019-02-06T11:10:43.568Z,7.56
2019-02-06T11:11:47.911Z,7.53
2019-02-06T11:12:52.229Z,7.74
2019-02-06T11:13:56.797Z,7.48
2019-02-06T11:15:01.373Z,7.55
2019-02-06T11:16:05.690Z,7.66
2019-02-06T11:17:09.891Z,7.49
2019-02-06T11:18:14.167Z,7.50
2019-02-06T11:19:19.025Z,7.52
2019-02-06T11:20:23.210Z,7.35
2019-02-06T11:21:27.802Z,7.52
2019-02-06T11:22:33.136Z,7.64
2019-02-06T11:23:37.428Z,7.52
2019-02-06T11:24:41.754Z,7.54
2019-02-06T11:25:46.145Z,7.53
2019-02-06T11:26:51.084Z,7.60
2019-02-06T11:27:56.067Z,7.62
2019-02-06T11:29:00.653Z,7.58
2019-02-06T11:30:06.925Z,7.64
2019-02-06T11:31:11.017Z,7.59
2019-02-06T11:32:15.590Z,7.81
2019-02-06T11:33:20.176Z,7.76
2019-02-06T11:34:24.767Z,7.73
2019-02-06T11:35:29.329Z,7.54
2019-02-06T11:36:33.683Z,7.57
2019-02-06T11:37:38.532Z,7.63
2019-02-06T11:38:42.853Z,7.53
2019-02-06T11:39:57.621Z,7.72
2019-02-06T11:40:54.535Z,7.71
2019-02-06T11:41:59.091Z,7.71
2019-02-06T11:43:03.951Z,7.74
2019-02-06T11:44:08.512Z,7.79
2019-02-06T11:45:15.138Z,7.89
2019-02-06T11:46:20.091Z,7.86
2019-02-06T11:47:24.877Z,7.88
2019-02-06T11:48:29.429Z,7.92
2019-02-06T11:49:38.677Z,7.86
2019-02-06T11:50:43.799Z,7.98
2019-02-06T11:51:48.094Z,8.03
2019-02-06T11:52:52.807Z,8.09
2019-02-06T11:53:57.390Z,8.17
2019-02-06T11:55:02.291Z,8.34
2019-02-06T11:56:06.582Z,8.56
2019-02-06T11:57:11.154Z,8.64
2019-02-06T11:58:15.447Z,8.39
2019-02-06T11:59:20.053Z,8.60
2019-02-06T12:00:43.540Z,8.67
2019-02-06T12:01:51.848Z,8.67
2019-02-06T12:02:56.160Z,8.67
2019-02-06T12:04:00.722Z,8.65
2019-02-06T12:05:05.370Z,8.50
2019-02-06T12:06:09.706Z,8.55
2019-02-06T12:07:14.001Z,8.70
2019-02-06T12:08:19.181Z,8.65
2019-02-06T12:09:24.336Z,9.04
2019-02-06T12:10:28.419Z,9.01
2019-02-06T12:11:33.118Z,9.19
2019-02-06T12:12:37.183Z,9.33
2019-02-06T12:13:41.778Z,9.56
2019-02-06T12:14:46.088Z,9.55
2019-02-06T12:15:50.145Z,9.18
2019-02-06T12:16:54.235Z,9.25
2019-02-06T12:17:59.116Z,9.28
2019-02-06T12:19:03.478Z,9.39
2019-02-06T12:20:11.323Z,9.28
2019-02-06T12:21:18.020Z,9.01
2019-02-06T12:22:22.195Z,9.07
2019-02-06T12:23:32.210Z,9.01
2019-02-06T12:24:33.184Z,9.02
2019-02-06T12:25:37.770Z,9.40
2019-02-06T12:26:42.621Z,9.35
2019-02-06T12:27:47.556Z,9.17
2019-02-06T12:28:52.103Z,8.87
2019-02-06T12:29:56.416Z,8.97
2019-02-06T12:31:00.766Z,9.00
2019-02-06T12:32:04.827Z,9.09
2019-02-06T12:33:08.879Z,9.04
2019-02-06T12:34:13.161Z,9.03
2019-02-06T12:35:18.029Z,8.86
2019-02-06T12:36:22.322Z,8.85
2019-02-06T12:37:26.890Z,8.92
2019-02-06T12:38:30.944Z,8.93
2019-02-06T12:39:35.062Z,8.88
2019-02-06T12:40:39.378Z,8.98
2019-02-06T12:41:44.204Z,9.02
2019-02-06T12:42:48.844Z,9.01
2019-02-06T12:43:53.140Z,9.07
2019-02-06T12:44:59.080Z,9.21
2019-02-06T12:46:03.628Z,9.16
2019-02-06T12:47:08.762Z,9.20
2019-02-06T12:48:13.335Z,9.06
2019-02-06T12:49:17.905Z,9.04
2019-02-06T12:50:22.550Z,9.18
2019-02-06T12:51:27.102Z,9.42
2019-02-06T12:52:31.554Z,9.33
2019-02-06T12:53:35.654Z,9.11
2019-02-06T12:54:40.041Z,9.30
2019-02-06T12:55:44.529Z,9.47
2019-02-06T12:56:49.132Z,9.32
2019-02-06T12:57:53.690Z,9.46
2019-02-06T12:58:58.262Z,9.54
2019-02-06T13:00:02.853Z,9.41
2019-02-06T13:01:07.127Z,9.48
2019-02-06T13:02:11.703Z,9.45
2019-02-06T13:03:16.561Z,9.32
2019-02-06T13:04:20.857Z,9.37
2019-02-06T13:05:25.525Z,9.36
2019-02-06T13:06:30.138Z,9.37
2019-02-06T13:07:34.867Z,9.47
2019-02-06T13:08:39.441Z,9.52
2019-02-06T13:09:44.065Z,9.27
2019-02-06T13:10:48.111Z,9.29
2019-02-06T13:11:52.975Z,9.37
2019-02-06T13:12:57.356Z,9.34
2019-02-06T13:14:02.038Z,9.30
2019-02-06T13:15:06.962Z,9.30
2019-02-06T13:16:11.161Z,9.36
2019-02-06T13:17:15.930Z,9.41
2019-02-06T13:18:20.488Z,9.53
2019-02-06T13:19:25.426Z,9.53
2019-02-06T13:20:30.095Z,9.37
2019-02-06T13:21:35.389Z,9.39
2019-02-06T13:22:40.005Z,9.37
2019-02-06T13:23:44.585Z,9.29
2019-02-06T13:24:48.891Z,9.41
2019-02-06T13:25:53.871Z,9.36
2019-02-06T13:26:58.377Z,9.35
2019-02-06T13:28:02.437Z,9.41
2019-02-06T13:29:07.116Z,9.43
2019-02-06T13:30:15.207Z,9.40
2019-02-06T13:31:20.084Z,9.35
2019-02-06T13:32:24.938Z,9.31
2019-02-06T13:33:29.773Z,9.36
2019-02-06T13:34:34.459Z,9.23
2019-02-06T13:35:38.915Z,9.28
2019-02-06T13:36:43.475Z,9.20
2019-02-06T13:37:48.110Z,9.16
2019-02-06T13:38:53.000Z,9.29
2019-02-06T13:39:57.292Z,9.28
2019-02-06T13:41:02.108Z,9.26
2019-02-06T13:42:06.402Z,9.32
2019-02-06T13:43:10.977Z,9.38
2019-02-06T13:44:15.548Z,9.38
2019-02-06T13:45:22.275Z,9.45
2019-02-06T13:46:26.927Z,9.42
2019-02-06T13:47:31.900Z,9.39
2019-02-06T13:48:36.442Z,9.49
2019-02-06T13:49:41.033Z,9.47
2019-02-06T13:50:45.656Z,9.47
2019-02-06T13:51:49.691Z,9.51
2019-02-06T13:52:54.278Z,9.52
2019-02-06T13:53:58.832Z,9.53
2019-02-06T13:55:03.426Z,9.47
2019-02-06T13:56:07.972Z,9.50
2019-02-06T13:57:12.274Z,9.57
2019-02-06T13:58:20.261Z,9.55
2019-02-06T13:59:22.675Z,9.60
2019-02-06T14:00:29.299Z,9.60
2019-02-06T14:01:37.515Z,9.58
2019-02-06T14:02:42.103Z,9.65
2019-02-06T14:03:46.658Z,9.73
2019-02-06T14:04:51.509Z,9.58
2019-02-06T14:05:56.287Z,9.53
2019-02-06T14:07:00.862Z,9.62
2019-02-06T14:08:07.892Z,9.69
2019-02-06T14:09:22.600Z,9.79
2019-02-06T14:10:22.783Z,9.76
2019-02-06T14:11:27.419Z,9.65
2019-02-06T14:12:32.008Z,9.67
2019-02-06T14:13:36.050Z,9.65
2019-02-06T14:14:40.364Z,9.72
2019-02-06T14:15:46.358Z,9.74
2019-02-06T14:16:50.757Z,9.71
2019-02-06T14:17:55.043Z,9.68
2019-02-06T14:18:59.323Z,9.72
2019-02-06T14:20:03.634Z,9.70
2019-02-06T14:21:07.681Z,9.78
2019-02-06T14:22:12.074Z,9.79
2019-02-06T14:23:48.932Z,9.75
2019-02-06T14:25:23.562Z,9.76
2019-02-06T14:26:44.751Z,9.69
2019-02-06T14:28:06.742Z,9.68
2019-02-06T14:29:50.865Z,9.69
2019-02-06T14:31:35.137Z,9.75
2019-02-06T14:33:10.620Z,9.75
2019-02-06T14:34:46.172Z,9.68
2019-02-06T14:36:20.081Z,9.66
2019-02-06T14:38:06.082Z,9.72
2019-02-06T14:39:26.224Z,9.67
2019-02-06T14:41:08.535Z,9.63
2019-02-06T14:42:35.282Z,9.59
2019-02-06T14:44:29.217Z,9.54